createdAt,value
2023-02-22T00:02:22.577Z,22.85
2023-02-22T00:04:49.880Z,23.20
2023-02-22T00:07:17.472Z,22.25
2023-02-22T00:09:44.687Z,22.00
2023-02-22T00:12:12.316Z,23.88
2023-02-22T00:14:40.452Z,23.75
2023-02-22T00:17:08.053Z,25.38
2023-02-22T00:19:35.404Z,29.30
2023-02-22T00:22:03.142Z,27.70
2023-02-22T00:24:32.843Z,27.80
2023-02-22T00:27:00.396Z,25.70
2023-02-22T00:29:28.684Z,26.25
2023-02-22T00:31:56.399Z,27.00
2023-02-22T00:34:24.347Z,28.73
2023-02-22T00:36:52.070Z,28.42
2023-02-22T00:39:19.416Z,27.83
2023-02-22T00:41:47.205Z,23.15
2023-02-22T00:44:14.785Z,25.15
2023-02-22T00:46:42.457Z,22.35
2023-02-22T00:49:09.745Z,21.52
2023-02-22T00:51:37.578Z,19.10
2023-02-22T00:54:05.544Z,20.45
2023-02-22T00:56:35.186Z,20.33
2023-02-22T00:59:03.189Z,20.60
2023-02-22T01:01:31.490Z,21.88
2023-02-22T01:03:59.262Z,20.63
2023-02-22T01:06:27.162Z,19.48
2023-02-22T01:08:54.448Z,18.25
2023-02-22T01:11:22.473Z,16.88
2023-02-22T01:13:49.868Z,19.80
2023-02-22T01:16:17.559Z,17.08
2023-02-22T01:18:44.942Z,14.82
2023-02-22T01:21:12.648Z,14.77
2023-02-22T01:23:39.901Z,14.32
2023-02-22T01:26:07.470Z,13.15
2023-02-22T01:28:35.256Z,15.35
2023-02-22T01:31:03.331Z,21.95
2023-02-22T01:33:31.823Z,24.50
2023-02-22T01:36:00.268Z,24.08
2023-02-22T01:38:27.780Z,20.63
2023-02-22T01:40:55.558Z,21.27
2023-02-22T01:43:25.897Z,18.73
2023-02-22T01:46:25.031Z,17.77
2023-02-22T01:48:57.284Z,16.67
2023-02-22T01:51:37.631Z,18.83
2023-02-22T01:54:33.579Z,19.10
2023-02-22T01:57:11.390Z,21.50
2023-02-22T01:59:49.044Z,23.85
2023-02-22T02:02:19.077Z,23.52
2023-02-22T02:04:46.696Z,19.83
2023-02-22T02:07:18.722Z,17.40
2023-02-22T02:10:02.850Z,15.07
2023-02-22T02:12:35.949Z,16.95
2023-02-22T02:15:29.067Z,14.60
2023-02-22T02:18:02.518Z,15.05
2023-02-22T02:21:08.855Z,14.55
2023-02-22T02:24:19.276Z,13.75
2023-02-22T02:27:23.995Z,12.90
2023-02-22T02:30:06.449Z,13.30
2023-02-22T02:32:59.948Z,12.10
2023-02-22T02:36:00.607Z,12.60
2023-02-22T02:38:59.440Z,15.07
2023-02-22T02:41:41.926Z,12.88
2023-02-22T02:44:22.818Z,12.73
2023-02-22T02:47:14.491Z,11.77
2023-02-22T02:49:58.222Z,13.45
2023-02-22T02:52:29.308Z,12.88
2023-02-22T02:54:58.228Z,14.10
2023-02-22T02:57:25.951Z,12.80
2023-02-22T02:59:53.305Z,10.50
2023-02-22T03:02:35.577Z,11.00
2023-02-22T03:05:31.916Z,16.65
2023-02-22T03:08:21.118Z,15.77
2023-02-22T03:11:21.523Z,14.50
2023-02-22T03:14:22.197Z,17.23
2023-02-22T03:17:47.908Z,14.70
2023-02-22T03:20:33.264Z,12.65
2023-02-22T03:23:28.849Z,13.23
2023-02-22T03:26:12.235Z,15.13
2023-02-22T03:28:46.614Z,13.80
2023-02-22T03:31:33.137Z,14.90
2023-02-22T03:34:08.942Z,14.98
2023-02-22T03:36:57.879Z,12.95
2023-02-22T03:39:31.308Z,13.15
2023-02-22T03:42:12.092Z,14.73
2023-02-22T03:44:42.975Z,13.50
2023-02-22T03:47:18.642Z,14.98
2023-02-22T03:50:07.579Z,14.20
2023-02-22T03:52:36.607Z,13.13
2023-02-22T03:55:11.266Z,13.48
2023-02-22T03:57:46.915Z,15.93
2023-02-22T04:00:20.123Z,13.57
2023-02-22T04:02:47.873Z,11.98
2023-02-22T04:05:20.473Z,11.80
2023-02-22T04:07:48.309Z,11.07
2023-02-22T04:10:17.062Z,13.10
2023-02-22T04:12:44.804Z,12.93
2023-02-22T04:15:20.226Z,12.70
2023-02-22T04:17:48.046Z,12.25
2023-02-22T04:20:20.053Z,14.25
2023-02-22T04:22:47.680Z,14.02
2023-02-22T04:25:15.690Z,14.35
2023-02-22T04:27:43.237Z,12.30
2023-02-22T04:30:12.269Z,13.68
2023-02-22T04:32:40.200Z,11.07
2023-02-22T04:35:08.129Z,12.18
2023-02-22T04:37:35.981Z,15.40
2023-02-22T04:40:07.962Z,12.77
2023-02-22T04:42:37.262Z,13.38
2023-02-22T04:45:08.517Z,12.48
2023-02-22T04:47:37.702Z,14.23
2023-02-22T04:50:09.337Z,14.00
2023-02-22T04:52:37.096Z,12.65
2023-02-22T04:55:05.308Z,13.45
2023-02-22T04:57:33.275Z,13.55
2023-02-22T05:00:00.550Z,13.95
2023-02-22T05:02:28.760Z,12.93
2023-02-22T05:04:56.136Z,11.70
2023-02-22T05:07:23.779Z,13.82
2023-02-22T05:09:51.126Z,13.88
2023-02-22T05:12:18.800Z,14.55
2023-02-22T05:14:46.070Z,12.90
2023-02-22T05:17:13.918Z,13.07
2023-02-22T05:19:42.144Z,13.43
2023-02-22T05:22:09.712Z,15.93
2023-02-22T05:24:37.281Z,15.55
2023-02-22T05:27:04.857Z,14.68
2023-02-22T05:29:32.519Z,14.77
2023-02-22T05:32:00.312Z,14.05
2023-02-22T05:34:27.662Z,13.95
2023-02-22T05:36:55.241Z,14.48
2023-02-22T05:39:22.563Z,17.48
2023-02-22T05:41:50.510Z,15.68
2023-02-22T05:44:17.950Z,12.60
2023-02-22T05:46:45.616Z,11.48
2023-02-22T05:49:12.973Z,13.77
2023-02-22T05:51:40.571Z,15.25
2023-02-22T05:54:08.291Z,14.35
2023-02-22T05:56:36.668Z,12.32
2023-02-22T05:59:04.054Z,15.93
2023-02-22T06:01:31.669Z,17.40
2023-02-22T06:03:58.951Z,14.45
2023-02-22T06:06:26.495Z,12.07
2023-02-22T06:08:53.800Z,15.65
2023-02-22T06:11:21.449Z,13.50
2023-02-22T06:13:53.594Z,13.32
2023-02-22T06:16:22.597Z,13.73
2023-02-22T06:18:50.384Z,12.73
2023-02-22T06:21:18.467Z,12.85
2023-02-22T06:23:45.850Z,12.18
2023-02-22T06:26:17.825Z,14.52
2023-02-22T06:28:46.880Z,16.27
2023-02-22T06:31:14.762Z,18.35
2023-02-22T06:33:42.128Z,19.30
2023-02-22T06:36:10.741Z,20.48
2023-02-22T06:38:38.091Z,18.50
2023-02-22T06:41:05.857Z,21.58
2023-02-22T06:43:33.086Z,18.92
2023-02-22T06:46:00.795Z,16.92
2023-02-22T06:48:28.198Z,17.98
2023-02-22T06:50:55.785Z,20.42
2023-02-22T06:53:23.235Z,20.17
2023-02-22T06:55:55.104Z,20.83
2023-02-22T06:58:22.600Z,20.40
2023-02-22T07:00:50.258Z,25.60
2023-02-22T07:03:17.621Z,27.33
2023-02-22T07:05:45.384Z,31.88
2023-02-22T07:08:13.295Z,27.65
2023-02-22T07:10:41.229Z,29.63
2023-02-22T07:13:09.434Z,30.30
2023-02-22T07:15:37.330Z,30.10
2023-02-22T07:18:05.778Z,30.85
2023-02-22T07:20:34.516Z,29.35
2023-02-22T07:23:02.225Z,36.22
2023-02-22T07:25:29.966Z,31.05
2023-02-22T07:27:57.602Z,27.45
2023-02-22T07:30:34.365Z,25.33
2023-02-22T07:33:08.002Z,23.83
2023-02-22T07:35:46.549Z,22.85
2023-02-22T07:38:17.037Z,33.40
2023-02-22T07:40:45.936Z,33.33
2023-02-22T07:43:21.007Z,31.20
2023-02-22T07:45:52.422Z,35.92
2023-02-22T07:48:23.674Z,33.78
2023-02-22T07:50:51.571Z,34.30
2023-02-22T07:53:28.612Z,50.70
2023-02-22T07:56:02.748Z,48.80
2023-02-22T07:58:32.603Z,32.47
2023-02-22T08:01:03.773Z,24.73
2023-02-22T08:03:36.821Z,27.95
2023-02-22T08:06:07.256Z,29.38
2023-02-22T08:08:34.722Z,32.67
2023-02-22T08:11:02.975Z,29.60
2023-02-22T08:13:30.369Z,25.42
2023-02-22T08:15:58.054Z,35.35
2023-02-22T08:18:26.274Z,37.38
2023-02-22T08:20:54.539Z,37.28
2023-02-22T08:23:27.077Z,32.60
2023-02-22T08:25:55.576Z,33.47
2023-02-22T08:28:24.563Z,49.70
2023-02-22T08:30:52.600Z,49.80
2023-02-22T08:33:21.645Z,63.38
2023-02-22T08:35:50.016Z,52.20
2023-02-22T08:38:31.173Z,32.72
2023-02-22T08:40:58.997Z,27.00
2023-02-22T08:43:26.396Z,26.88
2023-02-22T08:45:57.194Z,24.90
2023-02-22T08:48:24.960Z,24.83
2023-02-22T08:50:52.531Z,26.92
2023-02-22T08:53:19.921Z,24.25
2023-02-22T08:55:47.603Z,27.83
2023-02-22T08:58:15.237Z,27.20
2023-02-22T09:00:44.853Z,25.52
2023-02-22T09:03:15.647Z,25.45
2023-02-22T09:05:44.975Z,26.58
2023-02-22T09:08:12.842Z,24.83
2023-02-22T09:10:41.110Z,24.23
2023-02-22T09:13:09.129Z,24.63
2023-02-22T09:15:37.056Z,23.95
2023-02-22T09:18:10.925Z,21.52
2023-02-22T09:20:38.768Z,19.75
2023-02-22T09:23:07.435Z,19.33
2023-02-22T09:25:35.834Z,18.73
2023-02-22T09:28:03.230Z,14.93
2023-02-22T09:30:36.695Z,19.67
2023-02-22T09:33:31.934Z,19.05
2023-02-22T09:36:00.972Z,17.25
2023-02-22T09:38:30.248Z,14.85
2023-02-22T09:41:07.952Z,15.55
2023-02-22T09:44:07.660Z,11.48
2023-02-22T09:46:42.187Z,9.15
2023-02-22T09:49:30.017Z,10.13
2023-02-22T09:52:30.723Z,10.73
2023-02-22T09:55:16.925Z,11.25
2023-02-22T09:57:46.330Z,15.68
2023-02-22T10:00:21.604Z,17.02
2023-02-22T10:03:13.604Z,15.50
2023-02-22T10:05:48.277Z,15.65
2023-02-22T10:08:19.453Z,14.35
2023-02-22T10:10:58.573Z,56.05
2023-02-22T10:13:34.892Z,37.55
2023-02-22T10:16:14.402Z,32.78
2023-02-22T10:19:02.198Z,22.98
2023-02-22T10:21:47.933Z,51.20
2023-02-22T10:24:39.785Z,29.60
2023-02-22T10:27:28.421Z,14.70
2023-02-22T10:30:23.359Z,9.02
2023-02-22T10:33:22.063Z,9.55
2023-02-22T10:35:53.779Z,9.50
2023-02-22T10:38:23.691Z,8.48
2023-02-22T10:41:09.725Z,8.25
2023-02-22T10:43:43.312Z,7.03
2023-02-22T10:46:21.311Z,8.05
2023-02-22T10:48:54.713Z,8.63
2023-02-22T10:51:22.505Z,10.00
2023-02-22T10:54:15.210Z,7.78
2023-02-22T10:56:55.913Z,8.02
2023-02-22T10:59:42.645Z,9.13
2023-02-22T11:02:27.751Z,8.20
2023-02-22T11:04:59.259Z,6.97
2023-02-22T11:07:35.784Z,6.78
2023-02-22T11:10:09.395Z,7.32
2023-02-22T11:12:42.466Z,6.63
2023-02-22T11:15:22.389Z,7.00
2023-02-22T11:17:53.980Z,7.43
2023-02-22T11:20:35.320Z,7.80
2023-02-22T11:23:05.694Z,6.22
2023-02-22T11:25:38.580Z,5.88
2023-02-22T11:28:20.333Z,5.70
2023-02-22T11:30:52.311Z,5.97
2023-02-22T11:33:24.368Z,6.28
2023-02-22T11:36:02.553Z,5.28
2023-02-22T11:38:33.614Z,5.22
2023-02-22T11:41:23.081Z,5.88
2023-02-22T11:43:54.490Z,4.82
2023-02-22T11:46:27.160Z,5.50
2023-02-22T11:49:10.639Z,4.78
2023-02-22T11:52:08.263Z,5.18
2023-02-22T11:55:03.153Z,4.80
2023-02-22T11:57:54.011Z,4.80
2023-02-22T12:00:54.094Z,4.63
2023-02-22T12:03:39.222Z,4.50
2023-02-22T12:06:40.549Z,5.07
2023-02-22T12:09:40.848Z,4.20
2023-02-22T12:12:36.414Z,5.00
2023-02-22T12:15:18.761Z,5.85
2023-02-22T12:18:18.391Z,5.95
2023-02-22T12:21:00.083Z,5.07
2023-02-22T12:24:04.356Z,4.53
2023-02-22T12:27:01.321Z,4.43
2023-02-22T12:29:40.547Z,4.68
2023-02-22T12:32:29.331Z,5.32
2023-02-22T12:35:10.015Z,7.68
2023-02-22T12:38:05.161Z,7.13
2023-02-22T12:41:08.989Z,5.63
2023-02-22T12:44:04.286Z,5.68
2023-02-22T12:46:40.488Z,6.38
2023-02-22T12:49:49.773Z,6.63
2023-02-22T12:52:44.039Z,5.97
2023-02-22T12:55:25.882Z,4.85
2023-02-22T12:58:26.109Z,5.80
2023-02-22T13:01:14.642Z,4.45
2023-02-22T13:03:44.421Z,5.63
2023-02-22T13:06:45.592Z,5.85
2023-02-22T13:09:45.455Z,5.22
2023-02-22T13:12:27.746Z,5.40
2023-02-22T13:15:29.298Z,6.53
2023-02-22T13:18:25.862Z,6.45
2023-02-22T13:21:29.479Z,8.18
2023-02-22T13:24:26.782Z,8.52
2023-02-22T13:27:06.616Z,8.80
2023-02-22T13:29:47.358Z,9.15
2023-02-22T13:32:27.568Z,7.05
2023-02-22T13:35:12.642Z,7.15
2023-02-22T13:38:11.937Z,7.03
2023-02-22T13:41:23.930Z,7.57
2023-02-22T13:44:04.244Z,8.10
2023-02-22T13:46:49.535Z,7.85
2023-02-22T13:49:35.688Z,7.63
2023-02-22T13:52:19.684Z,6.85
2023-02-22T13:54:58.269Z,12.20
2023-02-22T13:57:38.377Z,19.02
2023-02-22T14:00:21.000Z,11.82
2023-02-22T14:03:13.081Z,9.02
2023-02-22T14:05:46.386Z,8.57
2023-02-22T14:08:19.726Z,8.77
2023-02-22T14:10:50.898Z,8.15
2023-02-22T14:13:26.821Z,9.15
2023-02-22T14:16:00.637Z,9.90
2023-02-22T14:18:36.187Z,10.90
2023-02-22T14:21:22.236Z,9.20
2023-02-22T14:23:52.035Z,11.85
2023-02-22T14:26:35.839Z,10.52
2023-02-22T14:29:09.572Z,10.30
2023-02-22T14:31:52.210Z,10.50
2023-02-22T14:34:39.609Z,11.90
2023-02-22T14:37:17.477Z,8.82
2023-02-22T14:39:51.344Z,9.93
2023-02-22T14:42:28.031Z,9.32
2023-02-22T14:45:14.605Z,9.30
2023-02-22T14:48:11.817Z,11.02
2023-02-22T14:50:45.311Z,10.32
2023-02-22T14:53:20.158Z,9.85
2023-02-22T14:55:56.694Z,9.73
2023-02-22T14:58:41.680Z,9.18
2023-02-22T15:01:47.336Z,9.02
2023-02-22T15:04:33.798Z,10.10
2023-02-22T15:07:09.622Z,10.30
2023-02-22T15:09:37.794Z,12.85
2023-02-22T15:12:05.382Z,11.40
2023-02-22T15:14:39.147Z,11.68
2023-02-22T15:17:24.728Z,12.00
2023-02-22T15:19:55.282Z,17.80
2023-02-22T15:22:28.300Z,18.33
2023-02-22T15:25:06.678Z,12.63
2023-02-22T15:27:37.448Z,12.20
2023-02-22T15:30:33.091Z,11.85
2023-02-22T15:33:34.242Z,13.35
2023-02-22T15:36:02.065Z,12.30
2023-02-22T15:38:31.243Z,12.85
2023-02-22T15:41:13.830Z,15.68
2023-02-22T15:43:41.838Z,15.57
2023-02-22T15:46:09.979Z,24.70
2023-02-22T15:48:41.327Z,30.92
2023-02-22T15:51:15.566Z,22.48
2023-02-22T15:53:49.696Z,17.48
2023-02-22T15:56:30.153Z,15.70
2023-02-22T15:59:13.891Z,13.85
2023-02-22T16:01:45.978Z,14.07
2023-02-22T16:04:27.466Z,13.00
2023-02-22T16:07:17.238Z,12.88
2023-02-22T16:09:52.230Z,13.68
2023-02-22T16:12:24.768Z,12.52
2023-02-22T16:14:52.664Z,12.40
2023-02-22T16:18:02.296Z,15.55
2023-02-22T16:20:30.533Z,14.02
2023-02-22T16:22:58.557Z,14.25
2023-02-22T16:25:35.672Z,13.57
2023-02-22T16:28:26.116Z,14.07
2023-02-22T16:31:00.358Z,13.00
2023-02-22T16:33:34.033Z,13.75
2023-02-22T16:36:08.257Z,14.45
2023-02-22T16:38:38.601Z,14.73
2023-02-22T16:41:07.792Z,16.17
2023-02-22T16:43:36.117Z,18.10
2023-02-22T16:46:07.090Z,20.35
2023-02-22T16:48:38.392Z,16.33
2023-02-22T16:51:26.738Z,14.70
2023-02-22T16:53:56.230Z,13.85
2023-02-22T16:56:31.024Z,14.68
2023-02-22T16:59:08.506Z,15.90
2023-02-22T17:01:35.931Z,15.90
2023-02-22T17:04:14.592Z,17.00
2023-02-22T17:06:41.966Z,19.73
2023-02-22T17:09:10.705Z,17.05
2023-02-22T17:11:39.351Z,17.73
2023-02-22T17:14:07.086Z,14.93
2023-02-22T17:16:34.657Z,16.40
2023-02-22T17:19:05.083Z,18.58
2023-02-22T17:21:32.464Z,16.63
2023-02-22T17:24:00.111Z,14.95
2023-02-22T17:26:28.352Z,16.00
2023-02-22T17:28:56.019Z,16.50
2023-02-22T17:31:29.304Z,21.27
2023-02-22T17:34:04.973Z,31.20
2023-02-22T17:36:36.517Z,24.75
2023-02-22T17:39:06.139Z,24.38
2023-02-22T17:41:33.500Z,27.08
2023-02-22T17:44:01.195Z,25.63
2023-02-22T17:46:28.731Z,23.95
2023-02-22T17:48:56.474Z,19.33
2023-02-22T17:51:26.494Z,18.05
2023-02-22T17:53:54.213Z,18.52
2023-02-22T17:56:22.075Z,17.50
2023-02-22T17:58:53.949Z,15.50
2023-02-22T18:01:32.291Z,15.00
2023-02-22T18:04:03.199Z,13.07
2023-02-22T18:06:33.819Z,14.60
2023-02-22T18:09:10.250Z,12.02
2023-02-22T18:11:40.137Z,13.32
2023-02-22T18:14:10.151Z,12.05
2023-02-22T18:16:39.545Z,13.13
2023-02-22T18:19:07.418Z,15.63
2023-02-22T18:21:34.939Z,14.80
2023-02-22T18:24:04.239Z,14.98
2023-02-22T18:26:31.819Z,14.90
2023-02-22T18:29:01.294Z,16.95
2023-02-22T18:31:29.262Z,16.42
2023-02-22T18:33:57.716Z,16.02
2023-02-22T18:36:25.760Z,15.60
2023-02-22T18:38:55.302Z,16.00
2023-02-22T18:41:25.565Z,17.40
2023-02-22T18:43:55.717Z,17.05
2023-02-22T18:46:25.606Z,16.55
2023-02-22T18:48:56.488Z,21.77
2023-02-22T18:51:26.251Z,17.40
2023-02-22T18:54:00.780Z,18.42
2023-02-22T18:56:30.366Z,18.92
2023-02-22T18:59:01.583Z,20.77
2023-02-22T19:01:31.338Z,22.52
2023-02-22T19:04:01.260Z,20.23
2023-02-22T19:06:28.643Z,31.77
2023-02-22T19:08:56.300Z,34.53
2023-02-22T19:11:25.227Z,30.95
2023-02-22T19:13:57.234Z,40.03
2023-02-22T19:16:27.476Z,35.65
2023-02-22T19:18:59.318Z,30.88
2023-02-22T19:21:29.991Z,31.77
2023-02-22T19:23:57.745Z,34.63
2023-02-22T19:26:27.759Z,37.97
2023-02-22T19:28:58.849Z,32.55
2023-02-22T19:31:31.560Z,33.60
2023-02-22T19:34:11.609Z,28.00
2023-02-22T19:36:45.985Z,25.40
2023-02-22T19:39:15.627Z,25.35
2023-02-22T19:41:43.743Z,22.50
2023-02-22T19:44:12.405Z,19.85
2023-02-22T19:46:40.697Z,21.42
2023-02-22T19:49:08.621Z,20.35
2023-02-22T19:51:36.212Z,20.73
2023-02-22T19:54:08.281Z,24.27
2023-02-22T19:56:36.533Z,20.70
2023-02-22T19:59:12.864Z,21.27
2023-02-22T20:01:44.501Z,20.58
2023-02-22T20:04:18.360Z,18.42
2023-02-22T20:06:52.047Z,20.85
2023-02-22T20:09:44.517Z,19.40
2023-02-22T20:12:12.080Z,19.58
2023-02-22T20:14:40.093Z,21.35
2023-02-22T20:17:08.158Z,21.33
2023-02-22T20:19:37.754Z,21.75
2023-02-22T20:22:05.304Z,22.95
2023-02-22T20:24:32.992Z,26.00
2023-02-22T20:27:00.377Z,23.75
2023-02-22T20:29:31.007Z,22.15
2023-02-22T20:32:01.463Z,26.80
2023-02-22T20:34:32.573Z,24.83
2023-02-22T20:37:01.465Z,27.02
2023-02-22T20:39:29.826Z,26.63
2023-02-22T20:42:00.641Z,26.08
2023-02-22T20:44:28.594Z,29.55
2023-02-22T20:46:56.087Z,33.15
2023-02-22T20:49:23.796Z,31.98
2023-02-22T20:51:51.240Z,31.60
2023-02-22T20:54:18.933Z,30.40
2023-02-22T20:56:47.750Z,33.08
2023-02-22T20:59:18.892Z,31.88
2023-02-22T21:01:49.461Z,32.20
2023-02-22T21:04:17.954Z,33.33
2023-02-22T21:06:46.814Z,31.70
2023-02-22T21:09:21.676Z,36.00
2023-02-22T21:11:49.293Z,35.65
2023-02-22T21:14:20.851Z,35.97
2023-02-22T21:16:51.965Z,38.60
2023-02-22T21:19:26.587Z,36.50
2023-02-22T21:21:56.527Z,37.50
2023-02-22T21:24:26.744Z,39.40
2023-02-22T21:26:55.769Z,40.20
2023-02-22T21:29:24.662Z,44.00
2023-02-22T21:31:52.164Z,42.45
2023-02-22T21:34:20.177Z,41.95
2023-02-22T21:36:47.490Z,43.90
2023-02-22T21:39:19.297Z,43.20
2023-02-22T21:41:49.719Z,39.80
2023-02-22T21:44:18.946Z,42.22
2023-02-22T21:46:50.776Z,38.60
2023-02-22T21:49:23.301Z,43.92
2023-02-22T21:51:52.601Z,41.07
2023-02-22T21:54:20.803Z,41.22
2023-02-22T21:56:48.599Z,38.42
2023-02-22T21:59:20.242Z,38.92
2023-02-22T22:01:51.458Z,40.60
2023-02-22T22:04:22.763Z,41.80
2023-02-22T22:06:53.556Z,39.72
2023-02-22T22:09:23.729Z,43.17
2023-02-22T22:11:58.412Z,41.15
2023-02-22T22:14:27.390Z,43.33
2023-02-22T22:17:00.278Z,43.83
2023-02-22T22:19:30.576Z,43.43
2023-02-22T22:21:58.708Z,42.05
2023-02-22T22:24:29.650Z,42.90
2023-02-22T22:26:57.000Z,43.03
2023-02-22T22:29:28.626Z,43.00
2023-02-22T22:31:56.813Z,41.17
2023-02-22T22:34:24.595Z,40.03
2023-02-22T22:36:51.936Z,39.10
2023-02-22T22:39:21.216Z,39.30
2023-02-22T22:41:48.771Z,38.10
2023-02-22T22:44:22.380Z,39.40
2023-02-22T22:46:53.826Z,37.33
2023-02-22T22:49:23.776Z,37.60
2023-02-22T22:51:51.438Z,36.63
2023-02-22T22:54:19.147Z,37.33
2023-02-22T22:56:46.588Z,35.80
2023-02-22T22:59:15.362Z,34.83
2023-02-22T23:01:46.605Z,32.73
2023-02-22T23:04:17.021Z,33.77
2023-02-22T23:06:54.355Z,33.83
2023-02-22T23:09:31.681Z,32.47
2023-02-22T23:12:09.267Z,31.70
2023-02-22T23:14:44.161Z,30.67
2023-02-22T23:17:26.890Z,30.40
2023-02-22T23:19:55.014Z,29.75
2023-02-22T23:22:22.396Z,30.10
2023-02-22T23:24:50.037Z,29.73
2023-02-22T23:27:19.076Z,28.47
2023-02-22T23:29:47.164Z,27.08
2023-02-22T23:32:14.727Z,27.25
2023-02-22T23:34:42.398Z,26.52
2023-02-22T23:37:10.877Z,26.30
2023-02-22T23:39:38.993Z,26.17
2023-02-22T23:42:09.001Z,27.00
2023-02-22T23:44:36.693Z,25.17
2023-02-22T23:47:04.561Z,26.03
2023-02-22T23:49:38.658Z,27.33
2023-02-22T23:52:08.611Z,27.17
2023-02-22T23:54:43.849Z,25.73
2023-02-22T23:57:11.408Z,26.10
2023-02-22T23:59:40.493Z,26.30
